Time;durP1;ratioP1;P1;durP2;ratioP2;P2;SDS_P1;SDS_P2;PMS_P1;PMS_P2;Temp;Humidity;BMP_temperature;BMP_pressure;BME280_temperature;BME280_humidity;BME280_pressure;Samples;Min_cycle;Max_cycle;Signal;HPM_P1;HPM_P2
2022/10/25 00:02:16;;;;;;;14.90;5.68;;;16.20;99.90;;;16.53;95.51;100941.81;4899378;29;20060;-67
2022/10/25 00:04:45;;;;;;;13.40;4.60;;;16.20;99.90;;;16.56;95.31;100944.44;4898786;29;20056;-67
2022/10/25 00:07:14;;;;;;;14.75;5.38;;;16.20;99.90;;;16.54;95.41;100948.94;4898881;29;20043;-67
2022/10/25 00:09:44;;;;;;;18.42;5.75;;;16.20;99.90;;;16.51;95.48;100950.81;4898630;29;20052;-68
2022/10/25 00:12:12;;;;;;;14.23;4.80;;;16.20;99.90;;;16.53;95.46;100957.84;4899224;29;20150;-67
2022/10/25 00:14:41;;;;;;;16.92;5.75;;;16.20;99.90;;;16.50;95.33;100955.28;4897575;29;20733;-67
2022/10/25 00:17:09;;;;;;;16.88;5.20;;;16.10;99.90;;;16.50;95.41;100954.38;4898548;29;20084;-67
2022/10/25 00:19:38;;;;;;;21.05;5.57;;;16.10;99.90;;;16.49;95.63;100956.19;4898465;29;20033;-67
2022/10/25 00:22:06;;;;;;;15.63;5.13;;;16.10;99.90;;;16.45;95.71;100959.84;4898423;29;20044;-67
2022/10/25 00:24:34;;;;;;;14.93;5.30;;;16.10;99.90;;;16.51;95.68;100957.00;4898445;29;20041;-67
2022/10/25 00:27:05;;;;;;;23.60;6.00;;;16.20;99.90;;;16.25;96.02;100927.44;4898457;29;20048;-66
2022/10/25 00:29:34;;;;;;;21.83;5.82;;;16.10;99.90;;;16.49;96.24;100968.69;4897326;29;20143;-67
2022/10/25 00:32:02;;;;;;;16.73;5.57;;;16.10;99.90;;;16.49;96.06;100972.19;4898539;29;20055;-66
2022/10/25 00:34:31;;;;;;;21.23;5.30;;;16.10;99.90;;;16.45;96.30;100973.19;4896862;29;20062;-66
2022/10/25 00:36:59;;;;;;;16.38;5.40;;;16.10;99.90;;;16.47;96.24;100963.34;4897179;29;20066;-66
2022/10/25 00:39:28;;;;;;;17.63;4.95;;;16.10;99.90;;;16.08;96.39;100911.91;4898438;29;20461;-67
2022/10/25 00:41:56;;;;;;;17.70;5.43;;;16.10;99.90;;;16.28;96.66;100943.38;4898197;29;20056;-67
2022/10/25 00:44:50;;;;;;;19.40;5.65;;;16.10;99.90;;;16.47;96.67;100976.72;4898566;29;20056;-66
2022/10/25 00:47:30;;;;;;;17.95;5.63;;;16.20;99.90;;;16.25;96.23;100978.16;4898103;29;20055;-66
2022/10/25 00:50:03;;;;;;;23.48;5.72;;;16.20;99.90;;;16.60;96.19;100983.50;4898087;29;20416;-66
2022/10/25 00:52:36;;;;;;;26.13;5.28;;;16.20;99.90;;;16.57;95.85;100982.72;4898051;29;20050;-67
2022/10/25 00:55:07;;;;;;;19.05;5.13;;;16.20;99.90;;;16.58;95.74;100984.44;4898074;29;20048;-66
2022/10/25 00:57:42;;;;;;;20.63;5.78;;;16.20;99.90;;;16.53;95.66;100991.72;4898049;29;20067;-66
2022/10/25 01:00:14;;;;;;;19.00;5.90;;;16.20;99.90;;;16.52;95.52;100985.50;4896767;29;20147;-66
2022/10/25 01:02:42;;;;;;;19.88;5.55;;;16.20;99.90;;;16.52;95.70;100980.16;4898256;29;20052;-66
2022/10/25 01:05:11;;;;;;;22.02;5.70;;;16.10;99.90;;;16.55;95.31;100972.03;4897857;29;20049;-66
2022/10/25 01:07:40;;;;;;;22.38;5.57;;;16.20;99.90;;;16.52;95.23;100985.50;4898212;29;20049;-67
2022/10/25 01:10:10;;;;;;;23.27;6.97;;;16.20;99.90;;;16.51;95.47;100982.88;4897869;29;20040;-66
2022/10/25 01:12:38;;;;;;;16.13;5.35;;;16.10;99.90;;;16.54;95.17;100990.78;4897874;29;20130;-66
2022/10/25 01:15:08;;;;;;;21.70;6.25;;;16.20;99.90;;;16.57;95.20;100985.38;4897865;29;20048;-66
2022/10/25 01:17:51;;;;;;;21.50;5.43;;;16.20;99.90;;;16.56;95.04;100989.84;4898115;29;20049;-67
2022/10/25 01:20:57;;;;;;;18.27;5.93;;;16.20;99.90;;;16.54;95.41;100990.78;4897873;29;20068;-67
2022/10/25 01:23:58;;;;;;;19.88;6.20;;;16.20;99.90;;;16.53;95.77;100992.56;4897832;29;20076;-67
2022/10/25 01:27:27;;;;;;;22.88;6.25;;;16.20;99.90;;;16.59;95.74;100997.75;4897849;29;20052;-66
2022/10/25 01:30:08;;;;;;;20.10;6.40;;;16.20;99.90;;;16.38;95.83;100976.03;4887876;29;20482;-66
2022/10/25 01:32:47;;;;;;;22.23;6.20;;;16.20;99.90;;;16.40;95.72;100969.75;4897374;29;20048;-66
2022/10/25 01:35:26;;;;;;;25.95;6.60;;;16.20;99.90;;;16.48;96.37;101015.84;4897753;29;20175;-66
2022/10/25 01:38:26;;;;;;;32.03;7.72;;;16.20;99.90;;;16.47;97.42;101002.53;4897638;29;20064;-66
2022/10/25 01:41:09;;;;;;;20.85;6.40;;;16.20;99.90;;;16.48;97.86;101004.25;4897897;29;20049;-67
2022/10/25 01:43:46;;;;;;;22.25;6.35;;;16.10;99.90;;;16.53;98.21;101016.59;4897664;29;20041;-67
2022/10/25 01:46:21;;;;;;;25.42;7.13;;;16.20;99.90;;;16.56;98.13;101019.22;4899309;29;20049;-67
2022/10/25 01:48:59;;;;;;;23.73;6.32;;;16.20;99.90;;;16.60;97.92;101015.53;4901270;29;20044;-67
2022/10/25 01:51:28;;;;;;;22.58;6.25;;;16.20;99.90;;;16.51;98.16;101007.75;4901127;29;20132;-66
2022/10/25 01:53:57;;;;;;;24.35;6.38;;;16.20;99.90;;;16.63;98.04;101015.44;4901120;29;20037;-66
2022/10/25 01:56:30;;;;;;;19.42;5.80;;;16.20;99.90;;;16.63;97.48;101010.09;4901102;29;20131;-66
2022/10/25 01:59:22;;;;;;;24.63;6.40;;;16.30;99.90;;;16.54;97.69;101007.69;4901299;29;20487;-66
2022/10/25 02:02:02;;;;;;;22.83;6.07;;;16.30;99.90;;;16.43;97.75;100999.06;4901257;29;20128;-67
2022/10/25 02:04:46;;;;;;;20.00;6.00;;;16.20;99.90;;;16.48;97.58;100997.16;4901022;29;20048;-67
2022/10/25 02:07:23;;;;;;;26.13;5.90;;;16.20;99.90;;;16.42;97.49;100997.28;4900954;29;20072;-66
2022/10/25 02:10:05;;;;;;;24.35;6.25;;;16.20;99.90;;;16.59;98.02;101027.13;4900912;29;20052;-67
2022/10/25 02:12:48;;;;;;;25.05;5.97;;;16.20;99.90;;;16.47;97.46;100995.41;4901041;29;20049;-66
2022/10/25 02:15:24;;;;;;;26.77;6.60;;;16.30;99.90;;;16.61;97.53;101021.72;4900802;29;20052;-66
2022/10/25 02:17:59;;;;;;;27.35;6.07;;;16.30;99.90;;;16.51;97.56;101017.59;4901256;29;20052;-66
2022/10/25 02:20:34;;;;;;;22.02;5.75;;;16.20;99.90;;;16.44;97.75;101006.13;4900698;29;20083;-68
2022/10/25 02:23:05;;;;;;;25.67;7.03;;;16.20;99.90;;;16.62;97.54;101024.41;4901171;29;20049;-67
2022/10/25 02:25:36;;;;;;;27.52;6.38;;;16.20;99.90;;;16.63;97.52;101031.47;4900619;29;20055;-67
2022/10/25 02:28:07;;;;;;;;;;;16.20;99.90;;;16.49;97.64;101014.06;4901031;29;20051;-66
2022/10/25 02:30:36;;;;;;;;;;;16.30;99.90;;;16.68;97.56;101034.03;4899983;29;19924;-67
2022/10/25 02:33:05;;;;;;;20.65;5.97;;;16.30;99.90;;;16.50;97.20;100999.78;4899370;29;19924;-66
2022/10/25 02:35:35;;;;;;;26.13;6.22;;;16.40;99.90;;;16.75;96.96;101041.84;4900415;29;20489;-66
2022/10/25 02:38:04;;;;;;;23.25;5.72;;;16.40;99.90;;;14.95;96.47;100721.94;4900293;29;20056;-67
2022/10/25 02:40:32;;;;;;;25.45;6.07;;;16.40;99.90;;;16.79;96.29;101040.84;4900321;29;20048;-66
2022/10/25 02:43:00;;;;;;;25.42;6.00;;;16.40;99.90;;;16.80;96.31;101031.88;4900232;29;20044;-66
2022/10/25 02:45:29;;;;;;;24.00;6.20;;;16.40;99.90;;;16.78;96.32;101039.06;4899171;29;20452;-67
2022/10/25 02:47:57;;;;;;;23.63;6.03;;;16.40;99.90;;;16.57;96.33;100998.72;4900423;29;20060;-66
2022/10/25 02:50:25;;;;;;;26.98;6.32;;;16.40;99.90;;;16.82;96.23;101038.06;4900667;29;20373;-66
2022/10/25 02:52:55;;;;;;;37.35;7.15;;;16.40;99.90;;;16.83;96.02;101042.50;4899960;29;20045;-66
2022/10/25 02:55:23;;;;;;;21.23;5.72;;;16.40;99.90;;;16.89;95.99;101044.13;4900574;29;20068;-66
2022/10/25 02:57:52;;;;;;;24.77;5.75;;;16.50;99.90;;;16.89;95.45;101038.78;4899243;29;20070;-66
2022/10/25 03:00:20;;;;;;;25.92;6.35;;;16.50;99.90;;;16.91;95.55;101048.53;4899938;29;20052;-66
2022/10/25 03:02:48;;;;;;;19.58;5.65;;;16.50;99.90;;;16.92;95.21;101047.59;4900321;29;20060;-66
2022/10/25 03:05:17;;;;;;;28.30;6.65;;;16.60;99.90;;;16.89;95.08;101054.81;4900180;29;20115;-66
2022/10/25 03:07:45;;;;;;;22.65;6.25;;;16.50;99.90;;;16.87;95.50;101041.50;4899760;29;20058;-66
2022/10/25 03:10:15;;;;;;;25.15;6.18;;;16.50;99.90;;;16.62;95.73;101031.53;4898735;29;20051;-66
2022/10/25 03:12:43;;;;;;;28.98;6.15;;;16.50;99.90;;;16.67;95.89;101033.16;4899643;29;20045;-66
2022/10/25 03:15:12;;;;;;;19.58;5.40;;;16.50;99.90;;;16.49;95.91;101000.72;4899682;29;20059;-67
2022/10/25 03:17:43;;;;;;;22.48;6.07;;;16.50;99.90;;;16.80;96.03;101057.75;4899623;29;20414;-67
2022/10/25 03:20:11;;;;;;;24.30;6.28;;;16.40;99.90;;;16.80;95.92;101053.25;4899726;29;20072;-67
2022/10/25 03:22:40;;;;;;;23.17;6.22;;;16.40;99.90;;;16.61;96.07;101032.41;4899561;29;20056;-66
2022/10/25 03:25:09;;;;;;;22.73;5.97;;;16.50;99.90;;;16.78;96.13;101070.28;4899414;29;20051;-66
2022/10/25 03:27:38;;;;;;;19.88;5.72;;;16.40;99.90;;;16.76;95.97;101082.78;4899469;29;20056;-67
2022/10/25 03:30:08;;;;;;;25.95;6.10;;;16.40;99.90;;;16.58;95.80;101056.56;4899411;29;20131;-67
2022/10/25 03:32:37;;;;;;;25.92;6.43;;;16.40;99.90;;;16.72;95.94;101086.47;4899708;29;20052;-66
2022/10/25 03:35:07;;;;;;;22.45;5.85;;;16.40;99.90;;;16.40;96.54;101051.63;4898375;29;20112;-66
2022/10/25 03:37:35;;;;;;;22.60;6.75;;;16.30;99.90;;;16.41;97.29;101072.09;4899855;29;20048;-67
2022/10/25 03:40:05;;;;;;;28.88;7.03;;;16.20;99.90;;;16.59;97.42;101096.56;4899515;29;20045;-67
2022/10/25 03:42:33;;;;;;;18.30;5.55;;;16.20;99.90;;;16.62;97.33;101092.97;4899445;29;20064;-67
2022/10/25 03:45:03;;;;;;;26.05;6.22;;;16.20;99.90;;;16.45;97.02;101060.44;4899264;29;20049;-67
2022/10/25 03:47:31;;;;;;;18.95;5.93;;;16.20;99.90;;;16.63;96.85;101097.38;4899203;29;20052;-66
2022/10/25 03:50:00;;;;;;;24.85;6.57;;;16.30;99.90;;;16.65;96.70;101099.09;4898012;29;20044;-66
2022/10/25 03:52:28;;;;;;;17.92;5.22;;;16.30;99.90;;;16.64;96.39;101101.81;4899168;29;20072;-66
2022/10/25 03:54:56;;;;;;;16.25;5.80;;;16.30;99.90;;;16.63;96.54;101100.91;4898960;29;20044;-66
2022/10/25 03:57:25;;;;;;;27.77;6.38;;;16.30;99.90;;;16.63;96.50;101105.38;4899108;29;20063;-66
2022/10/25 03:59:53;;;;;;;28.73;6.63;;;16.30;99.90;;;16.62;96.31;101096.50;4898836;29;20483;-66
2022/10/25 04:02:24;;;;;;;24.15;6.25;;;16.30;99.90;;;16.64;96.43;101097.34;4899077;29;20143;-67
2022/10/25 04:04:52;;;;;;;22.20;7.00;;;16.30;99.90;;;16.61;96.20;101084.06;4899036;29;20055;-66
2022/10/25 04:07:21;;;;;;;20.48;6.55;;;16.30;99.90;;;16.45;95.85;101068.44;4898769;29;20045;-66
2022/10/25 04:09:49;;;;;;;26.10;6.70;;;16.30;99.90;;;16.47;96.01;101078.19;4898676;29;20056;-66
2022/10/25 04:12:17;;;;;;;24.40;6.28;;;16.30;99.90;;;16.50;95.96;101093.25;4898826;29;20044;-66
2022/10/25 04:14:46;;;;;;;18.85;5.70;;;16.30;99.90;;;16.53;96.27;101098.53;4898665;29;20075;-67
2022/10/25 04:17:14;;;;;;;23.80;6.20;;;16.20;99.90;;;16.59;96.24;101114.41;4898578;29;20045;-66
2022/10/25 04:19:44;;;;;;;29.33;6.90;;;16.20;99.90;;;16.48;96.24;101098.63;4898476;29;20062;-67
2022/10/25 04:22:13;;;;;;;24.75;6.30;;;16.20;99.90;;;16.30;96.45;101084.84;4898759;29;20048;-66
2022/10/25 04:24:41;;;;;;;23.88;6.47;;;16.10;99.90;;;16.30;96.52;101088.38;4898474;29;20040;-67
2022/10/25 04:27:09;;;;;;;24.08;5.82;;;16.20;99.90;;;16.44;96.54;101118.28;4898895;29;20101;-66
2022/10/25 04:29:38;;;;;;;18.58;6.32;;;16.10;99.90;;;16.38;96.61;101104.19;4898641;29;20124;-66
2022/10/25 04:32:07;;;;;;;20.42;6.38;;;16.10;99.90;;;16.34;96.37;101118.56;4898234;29;20584;-66
2022/10/25 04:34:35;;;;;;;18.25;6.22;;;16.10;99.90;;;16.17;96.22;101073.56;4898564;29;20044;-67
2022/10/25 04:37:05;;;;;;;21.15;6.07;;;16.10;99.90;;;16.45;96.59;101133.41;4898634;29;20064;-67
2022/10/25 04:39:33;;;;;;;23.77;6.63;;;16.10;99.90;;;16.41;96.76;101137.06;4898429;29;20060;-66
2022/10/25 04:42:01;;;;;;;21.38;6.25;;;16.10;99.90;;;16.38;96.79;101131.78;4897119;29;20798;-66
2022/10/25 04:44:30;;;;;;;25.15;6.50;;;16.00;99.90;;;16.43;96.67;101139.69;4898109;29;20049;-67
2022/10/25 04:46:58;;;;;;;26.92;6.70;;;16.00;99.90;;;16.35;96.56;101141.66;4898058;29;20045;-66
2022/10/25 04:49:26;;;;;;;16.75;5.68;;;16.00;99.90;;;14.52;96.36;100833.84;4898211;29;20084;-66
2022/10/25 04:51:55;;;;;;;19.25;5.70;;;16.00;99.90;;;16.35;96.56;101155.00;4898241;29;20044;-66
2022/10/25 04:54:24;;;;;;;17.80;5.47;;;16.00;99.90;;;16.29;96.21;101148.03;4896916;29;20115;-66
2022/10/25 04:56:53;;;;;;;22.40;5.43;;;15.90;99.90;;;16.31;96.19;101154.22;4898044;29;20132;-66
2022/10/25 04:59:25;;;;;;;18.77;5.82;;;16.00;99.90;;;16.30;96.09;101154.25;4898036;29;20502;-67
2022/10/25 05:01:54;;;;;;;18.17;5.50;;;16.00;99.90;;;16.30;96.08;101156.94;4898286;29;20056;-66
2022/10/25 05:04:22;;;;;;;22.00;6.07;;;15.90;99.90;;;16.27;96.04;101164.09;4898120;29;20048;-66
2022/10/25 05:06:51;;;;;;;21.63;5.53;;;15.90;99.90;;;16.31;95.78;101162.22;4896959;29;20104;-66
2022/10/25 05:09:19;;;;;;;16.27;5.35;;;15.90;99.90;;;16.23;95.38;101156.19;4898181;29;20049;-66
2022/10/25 05:11:49;;;;;;;17.95;5.70;;;15.90;99.90;;;16.19;95.41;101167.84;4897846;29;20047;-66
2022/10/25 05:14:17;;;;;;;24.17;6.88;;;15.90;99.90;;;16.18;95.42;101177.63;4897947;29;20049;-67
2022/10/25 05:16:45;;;;;;;14.65;5.65;;;15.80;99.90;;;15.95;95.49;101150.56;4897972;29;20044;-67
2022/10/25 05:19:14;;;;;;;17.60;5.97;;;15.80;99.90;;;15.96;95.51;101155.00;4897085;29;20055;-66
2022/10/25 05:21:42;;;;;;;21.88;5.85;;;15.70;99.90;;;15.85;95.44;101153.47;4900464;29;20059;-66
2022/10/25 05:24:10;;;;;;;15.68;6.05;;;15.70;99.90;;;15.99;95.45;101186.06;4901619;29;20048;-66
2022/10/25 05:26:39;;;;;;;14.75;6.03;;;15.70;99.90;;;15.98;95.63;101189.66;4902010;29;20044;-66
2022/10/25 05:29:12;;;;;;;17.35;6.60;;;15.60;99.90;;;15.99;95.82;101194.94;4901665;29;20046;-66
2022/10/25 05:31:41;;;;;;;14.52;5.65;;;15.60;99.90;;;15.99;95.55;101189.63;4901833;29;20056;-66
2022/10/25 05:34:10;;;;;;;20.20;5.90;;;15.60;99.90;;;15.97;95.85;101203.88;4901367;29;20071;-66
2022/10/25 05:36:39;;;;;;;20.48;6.78;;;15.60;99.90;;;16.00;95.88;101198.50;4901992;29;20045;-66
2022/10/25 05:39:07;;;;;;;21.08;6.88;;;15.60;99.90;;;15.98;96.05;101200.31;4901347;29;20503;-67
2022/10/25 05:41:35;;;;;;;19.80;6.32;;;15.60;99.90;;;15.93;95.95;101200.41;4901678;29;20128;-68
2022/10/25 05:44:05;;;;;;;15.27;6.75;;;15.60;99.90;;;15.96;95.92;101207.50;4901645;29;20135;-68
2022/10/25 05:46:35;;;;;;;18.48;6.15;;;15.60;99.90;;;15.84;95.83;101197.06;4901341;29;20048;-69
2022/10/25 05:49:03;;;;;;;23.77;7.55;;;15.50;99.90;;;15.81;95.88;101194.47;4901328;29;20128;-69
2022/10/25 05:51:33;;;;;;;16.40;6.57;;;15.50;99.90;;;14.15;95.86;100916.16;4901191;29;20104;-68
2022/10/25 05:54:06;;;;;;;17.05;7.00;;;15.50;99.90;;;15.81;96.40;101218.47;4901436;29;20055;-69
2022/10/25 05:56:35;;;;;;;;;;;15.50;99.90;;;15.82;96.37;101193.53;4902047;29;20040;-68
2022/10/25 05:59:07;;;;;;;24.15;7.63;;;15.50;99.90;;;15.98;96.08;101209.22;4901485;29;19923;-68
2022/10/25 06:01:40;;;;;;;20.58;7.75;;;15.60;99.90;;;15.78;96.23;101197.19;4900838;29;20057;-68
2022/10/25 06:04:10;;;;;;;18.10;7.50;;;15.50;99.90;;;15.92;96.34;101211.13;4900907;29;20056;-68
2022/10/25 06:06:40;;;;;;;19.67;8.07;;;15.60;99.90;;;15.51;96.53;101152.41;4900956;29;20072;-68
2022/10/25 06:09:09;;;;;;;26.30;8.40;;;15.50;99.90;;;15.87;96.74;101213.88;4900812;29;20305;-68
2022/10/25 06:11:38;;;;;;;22.58;8.40;;;15.60;99.90;;;15.93;96.73;101207.56;4900658;29;20276;-66
2022/10/25 06:14:09;;;;;;;20.83;8.43;;;15.60;99.90;;;15.91;96.90;101223.59;4900693;29;20131;-68
2022/10/25 06:16:38;;;;;;;18.95;7.45;;;15.60;99.90;;;15.90;97.23;101210.28;4900790;29;20049;-68
2022/10/25 06:19:07;;;;;;;27.50;8.38;;;15.50;99.90;;;15.94;96.80;101214.66;4899755;29;20048;-68
2022/10/25 06:21:36;;;;;;;22.45;8.13;;;15.60;99.90;;;15.93;96.68;101215.56;4900628;29;20483;-69
2022/10/25 06:24:05;;;;;;;16.83;7.28;;;15.50;99.90;;;15.94;96.34;101227.97;4900500;29;20076;-68
2022/10/25 06:26:33;;;;;;;13.82;7.72;;;15.60;99.90;;;15.73;96.41;101189.28;4900759;29;20072;-68
2022/10/25 06:29:05;;;;;;;20.45;7.75;;;15.60;99.90;;;15.93;96.02;101228.91;4900390;29;20495;-68
2022/10/25 06:31:33;;;;;;;19.15;7.80;;;15.60;99.90;;;15.88;95.97;101231.66;4900411;29;20045;-66
2022/10/25 06:34:03;;;;;;;17.27;7.95;;;15.50;99.90;;;15.92;96.15;101238.69;4899824;29;20073;-67
2022/10/25 06:36:32;;;;;;;19.15;7.93;;;15.60;99.90;;;15.95;96.03;101235.94;4900586;29;20148;-67
2022/10/25 06:39:00;;;;;;;18.85;7.75;;;15.60;99.90;;;15.98;95.76;101240.34;4900346;29;20503;-66
2022/10/25 06:41:35;;;;;;;19.63;8.32;;;15.60;99.90;;;15.95;95.63;101243.97;4900570;29;20052;-66
2022/10/25 06:44:05;;;;;;;;;;;15.60;99.90;;;15.75;95.64;101216.81;4900683;29;20495;-67
2022/10/25 06:46:36;;;;;;;19.88;9.10;;;15.60;99.90;;;15.68;95.78;101236.50;4900707;29;19979;-66
2022/10/25 06:49:26;;;;;;;22.58;8.05;;;15.50;99.90;;;15.80;95.90;101264.72;4900154;29;20510;-67
2022/10/25 06:51:55;;;;;;;19.75;8.50;;;15.50;99.90;;;15.75;96.43;101263.94;4900431;29;20049;-67
2022/10/25 06:54:25;;;;;;;24.25;9.65;;;15.40;99.90;;;15.82;96.50;101270.91;4900123;29;20045;-66
2022/10/25 06:56:53;;;;;;;20.67;7.93;;;15.50;99.90;;;15.87;96.50;101271.72;4900105;29;20123;-66
2022/10/25 06:59:25;;;;;;;17.35;7.80;;;15.50;99.90;;;15.82;96.66;101276.25;4898997;29;20092;-67
2022/10/25 07:01:53;;;;;;;18.80;8.52;;;15.50;99.90;;;15.91;96.78;101289.44;4898541;29;20071;-66
2022/10/25 07:04:22;;;;;;;16.58;7.50;;;15.60;99.90;;;16.06;96.98;101281.09;4899810;29;20048;-66
2022/10/25 07:06:52;;;;;;;18.30;7.78;;;15.70;99.90;;;16.16;96.44;101274.69;4899964;29;20052;-66
2022/10/25 07:09:22;;;;;;;16.60;8.05;;;15.80;99.90;;;16.32;95.65;101277.91;4899895;29;20112;-66
2022/10/25 07:11:51;;;;;;;14.95;7.55;;;15.90;99.90;;;16.46;95.05;101279.34;4899982;29;20056;-66
2022/10/25 07:14:19;;;;;;;18.02;7.72;;;16.10;99.90;;;16.63;93.99;101285.22;4899879;29;20080;-67
2022/10/25 07:16:48;;;;;;;18.77;7.18;;;16.30;99.90;;;16.86;92.83;101288.25;4899702;29;20045;-66
2022/10/25 07:19:16;;;;;;;11.77;6.80;;;16.50;99.90;;;17.01;91.45;101295.91;4899546;29;20044;-66
2022/10/25 07:21:45;;;;;;;11.10;5.88;;;16.70;99.90;;;16.98;90.27;101253.22;4899484;29;20048;-66
2022/10/25 07:24:14;;;;;;;14.48;6.13;;;16.80;99.90;;;17.31;89.30;101282.69;4898609;29;20064;-66
2022/10/25 07:26:43;;;;;;;11.20;5.83;;;17.10;99.90;;;17.63;87.84;101309.56;4899447;29;20056;-66
2022/10/25 07:29:12;;;;;;;14.32;5.32;;;17.30;99.90;;;17.80;86.93;101313.53;4899423;29;20483;-67
2022/10/25 07:31:43;;;;;;;13.20;5.50;;;17.50;99.90;;;18.02;85.90;101321.88;4899396;29;20550;-66
2022/10/25 07:34:14;;;;;;;14.98;5.40;;;17.70;99.90;;;18.10;84.61;101319.81;4898332;29;20053;-66
2022/10/25 07:36:42;;;;;;;18.02;5.97;;;17.80;99.90;;;18.34;83.92;101328.97;4899207;29;20059;-66
2022/10/25 07:39:10;;;;;;;11.48;5.50;;;18.00;99.90;;;18.37;82.77;101311.00;4899774;29;20040;-67
2022/10/25 07:41:40;;;;;;;9.70;5.00;;;18.10;99.90;;;18.34;81.90;101326.28;4899429;29;20044;-66
2022/10/25 07:44:08;;;;;;;13.13;5.57;;;18.10;99.90;;;18.34;81.78;101323.63;4898889;29;20049;-66
2022/10/25 07:46:44;;;;;;;12.80;5.40;;;18.00;99.90;;;18.13;81.92;101325.13;4899681;29;20045;-66
2022/10/25 07:49:12;;;;;;;11.57;4.82;;;17.90;99.90;;;18.04;82.42;101331.59;4898121;29;20058;-66
2022/10/25 07:51:40;;;;;;;14.00;5.00;;;17.70;99.90;;;17.92;82.90;101331.06;4899247;29;20490;-67
2022/10/25 07:54:09;;;;;;;13.13;5.43;;;17.60;99.90;;;17.59;83.45;101294.50;4898005;29;20497;-67
2022/10/25 07:56:37;;;;;;;17.00;5.75;;;17.40;99.90;;;17.59;84.00;101316.78;4899237;29;20505;-66
2022/10/25 07:59:07;;;;;;;16.40;5.90;;;17.30;99.90;;;17.60;84.46;101331.00;4898824;29;20384;-66
2022/10/25 08:01:36;;;;;;;14.57;6.67;;;17.20;99.90;;;17.49;85.21;101342.00;4898891;29;20056;-66
2022/10/25 08:04:04;;;;;;;11.40;5.50;;;17.20;99.90;;;17.22;85.51;101296.31;4898852;29;20048;-66
2022/10/25 08:06:34;;;;;;;10.88;5.50;;;17.10;99.90;;;17.27;86.29;101329.16;4898311;29;20040;-66
2022/10/25 08:09:05;;;;;;;13.55;6.28;;;17.00;99.90;;;17.43;86.60;101335.88;4899049;29;20048;-66
2022/10/25 08:11:47;;;;;;;14.20;6.63;;;17.10;99.90;;;17.37;86.98;101336.03;4897780;29;20467;-66
2022/10/25 08:14:17;;;;;;;13.27;6.80;;;17.10;99.90;;;17.54;86.99;101345.44;4898523;29;20055;-66
2022/10/25 08:16:45;;;;;;;16.77;7.23;;;17.20;99.90;;;17.54;86.25;101349.91;4898895;29;20048;-68
2022/10/25 08:19:13;;;;;;;13.50;6.82;;;17.20;99.90;;;17.48;86.53;101355.38;4898762;29;20281;-68
2022/10/25 08:21:42;;;;;;;15.20;7.18;;;17.10;99.90;;;17.48;86.60;101350.94;4897480;29;20056;-68
2022/10/25 08:24:10;;;;;;;16.77;8.10;;;17.10;99.90;;;17.27;86.85;101347.84;4898749;29;20056;-69
2022/10/25 08:26:39;;;;;;;14.63;7.90;;;17.00;99.90;;;17.35;87.67;101359.25;4898686;29;20083;-68
2022/10/25 08:29:07;;;;;;;14.63;8.82;;;17.00;99.90;;;17.37;87.86;101357.44;4898236;29;20063;-68
2022/10/25 08:31:37;;;;;;;16.48;9.57;;;17.00;99.90;;;17.32;88.33;101368.25;4897346;29;20069;-68
2022/10/25 08:34:05;;;;;;;15.57;9.70;;;17.00;99.90;;;17.30;88.19;101350.47;4897346;29;20402;-68
2022/10/25 08:36:34;;;;;;;17.27;10.05;;;17.00;99.90;;;17.25;88.47;101357.75;4897204;29;20052;-66
2022/10/25 08:39:02;;;;;;;16.75;10.73;;;16.90;99.90;;;16.95;88.45;101325.47;4898400;29;20037;-66
2022/10/25 08:41:43;;;;;;;15.82;9.90;;;16.80;99.90;;;17.15;88.82;101367.75;4898406;29;20142;-66
2022/10/25 08:44:29;;;;;;;20.52;10.63;;;16.80;99.90;;;17.22;89.07;101366.72;4898326;29;20128;-66
2022/10/25 08:47:04;;;;;;;20.70;10.68;;;16.80;99.90;;;17.32;89.68;101378.06;4897276;29;20052;-66
2022/10/25 08:49:48;;;;;;;19.15;12.02;;;17.00;99.90;;;17.33;89.20;101361.09;4898154;29;20041;-66
2022/10/25 08:52:21;;;;;;;17.05;10.90;;;17.10;99.90;;;17.27;88.66;101372.81;4898462;29;20037;-66
2022/10/25 08:54:50;;;;;;;15.93;10.48;;;17.00;99.90;;;17.44;89.00;101372.44;4897962;29;20044;-66
2022/10/25 08:57:24;;;;;;;15.90;10.45;;;17.10;99.90;;;17.58;88.71;101357.81;4896707;29;20432;-66
2022/10/25 08:59:55;;;;;;;21.70;11.63;;;17.30;99.90;;;17.54;86.98;101369.50;4898280;29;20052;-66
2022/10/25 09:02:36;;;;;;;19.55;11.80;;;17.40;99.90;;;17.60;87.11;101379.16;4896571;29;20165;-68
2022/10/25 09:05:12;;;;;;;16.95;11.20;;;17.30;99.90;;;17.72;86.94;101382.44;4897996;29;20507;-68
2022/10/25 09:08:07;;;;;;;15.73;10.43;;;17.40;99.90;;;17.65;86.36;101386.16;4898445;29;20135;-68
2022/10/25 09:10:50;;;;;;;17.33;11.85;;;17.40;99.90;;;17.59;86.39;101393.47;4898018;29;20136;-66
2022/10/25 09:13:33;;;;;;;22.80;13.18;;;17.30;99.90;;;17.65;86.87;101393.34;4897934;29;20068;-66
2022/10/25 09:16:15;;;;;;;18.40;11.77;;;17.30;99.90;;;17.58;86.70;101394.38;4898059;29;20047;-66
2022/10/25 09:18:49;;;;;;;23.27;12.82;;;17.20;99.90;;;17.50;87.20;101397.25;4898109;29;20045;-66
2022/10/25 09:21:23;;;;;;;20.52;12.68;;;17.20;99.90;;;17.43;87.33;101395.63;4897551;29;20124;-66
2022/10/25 09:23:59;;;;;;;19.98;12.50;;;17.10;99.90;;;17.37;87.71;101394.88;4896732;29;20520;-66
2022/10/25 09:26:46;;;;;;;19.25;13.13;;;17.10;99.90;;;17.08;88.32;101371.50;4898114;29;20461;-66
2022/10/25 09:29:23;;;;;;;19.00;13.38;;;16.90;99.90;;;17.25;88.75;101409.41;4897892;29;20151;-66
2022/10/25 09:31:57;;;;;;;23.60;14.10;;;16.90;99.90;;;17.21;88.95;101409.53;4897709;29;20049;-66
2022/10/25 09:34:32;;;;;;;20.38;13.60;;;16.80;99.90;;;17.20;89.20;101419.34;4897902;29;20045;-66
2022/10/25 09:37:13;;;;;;;18.40;12.93;;;16.90;99.90;;;17.12;89.15;101414.16;4898025;29;20072;-66
2022/10/25 09:39:46;;;;;;;22.55;14.07;;;16.80;99.90;;;17.17;89.58;101417.59;4897699;29;20469;-66
2022/10/25 09:42:20;;;;;;;21.17;13.93;;;16.80;99.90;;;17.15;89.53;101411.41;4897957;29;20040;-66
2022/10/25 09:44:54;;;;;;;23.83;14.48;;;16.80;99.90;;;17.23;89.62;101418.41;4897885;29;20403;-66
2022/10/25 09:47:41;;;;;;;20.10;13.13;;;16.80;99.90;;;17.25;89.80;101414.75;4896338;29;20106;-66
2022/10/25 09:50:21;;;;;;;17.85;12.38;;;16.90;99.90;;;17.09;89.47;101391.97;4897499;29;20052;-66
2022/10/25 09:53:08;;;;;;;23.52;12.18;;;16.90;99.90;;;17.28;89.83;101412.03;4897621;29;20055;-66
2022/10/25 09:55:44;;;;;;;19.67;12.00;;;17.00;99.90;;;17.35;89.78;101424.34;4897260;29;20506;-66
2022/10/25 09:58:20;;;;;;;17.27;11.73;;;17.00;99.90;;;17.54;89.94;101414.09;4897423;29;20523;-66
2022/10/25 10:00:48;;;;;;;21.35;12.23;;;17.20;99.90;;;17.58;88.86;101422.03;4897480;29;20079;-66
2022/10/25 10:03:20;;;;;;;17.55;10.93;;;17.30;99.90;;;17.60;88.49;101404.13;4897649;29;20053;-66
2022/10/25 10:05:54;;;;;;;17.00;11.65;;;17.40;99.90;;;17.85;87.74;101412.44;4897395;29;20070;-67
2022/10/25 10:08:22;;;;;;;21.45;12.13;;;17.50;99.90;;;17.93;87.30;101416.69;4900672;29;20479;-66
2022/10/25 10:10:53;;;;;;;18.88;11.20;;;17.60;99.90;;;18.16;86.48;101421.41;4900878;29;20075;-67
2022/10/25 10:13:28;;;;;;;;;;;17.80;99.90;;;18.21;85.52;101427.56;4901678;29;20128;-66
2022/10/25 10:16:00;;;;;;;17.90;9.48;;;17.90;99.90;;;18.40;84.92;101428.81;4899779;29;19946;-66
2022/10/25 10:18:30;;;;;;;17.02;8.52;;;18.10;99.90;;;18.36;84.57;101411.06;4900837;29;20073;-66
2022/10/25 10:21:13;;;;;;;14.82;8.48;;;18.20;99.90;;;18.24;83.94;101403.34;4900694;29;20131;-67
2022/10/25 10:23:51;;;;;;;16.88;9.10;;;18.20;99.90;;;17.48;83.75;101264.44;4900640;29;20045;-66
2022/10/25 10:26:28;;;;;;;19.27;8.40;;;18.10;99.90;;;17.88;83.73;101332.94;4900794;29;20049;-67